sensor_id;sensor_type;location;lat;lon;timestamp;P1;durP1;ratioP1;P2;durP2;ratioP2
23304;SDS011;11821;51.456;8.844;2023-05-29T00:02:12;4.25;;;3.85;;
23304;SDS011;11821;51.456;8.844;2023-05-29T00:04:40;5.38;;;3.63;;
23304;SDS011;11821;51.456;8.844;2023-05-29T00:07:07;5.30;;;3.63;;
23304;SDS011;11821;51.456;8.844;2023-05-29T00:09:34;5.88;;;3.58;;
23304;SDS011;11821;51.456;8.844;2023-05-29T00:12:04;4.75;;;3.72;;
23304;SDS011;11821;51.456;8.844;2023-05-29T00:14:32;4.38;;;3.63;;
23304;SDS011;11821;51.456;8.844;2023-05-29T00:16:59;6.20;;;3.65;;
23304;SDS011;11821;51.456;8.844;2023-05-29T00:19:26;4.88;;;4.03;;
23304;SDS011;11821;51.456;8.844;2023-05-29T00:21:53;7.32;;;4.43;;
23304;SDS011;11821;51.456;8.844;2023-05-29T00:24:20;5.22;;;3.70;;
23304;SDS011;11821;51.456;8.844;2023-05-29T00:26:47;5.32;;;4.00;;
23304;SDS011;11821;51.456;8.844;2023-05-29T00:29:15;5.18;;;3.75;;
23304;SDS011;11821;51.456;8.844;2023-05-29T00:31:42;6.85;;;4.10;;
23304;SDS011;11821;51.456;8.844;2023-05-29T00:34:09;4.53;;;3.55;;
23304;SDS011;11821;51.456;8.844;2023-05-29T00:36:36;6.20;;;3.53;;
23304;SDS011;11821;51.456;8.844;2023-05-29T00:39:04;5.53;;;4.07;;
23304;SDS011;11821;51.456;8.844;2023-05-29T00:41:31;6.50;;;3.85;;
23304;SDS011;11821;51.456;8.844;2023-05-29T00:43:57;5.43;;;3.63;;
23304;SDS011;11821;51.456;8.844;2023-05-29T00:46:24;4.20;;;3.28;;
23304;SDS011;11821;51.456;8.844;2023-05-29T00:48:51;4.95;;;3.78;;
23304;SDS011;11821;51.456;8.844;2023-05-29T00:51:19;4.45;;;4.05;;
23304;SDS011;11821;51.456;8.844;2023-05-29T00:53:46;4.93;;;3.55;;
23304;SDS011;11821;51.456;8.844;2023-05-29T00:56:16;8.10;;;3.85;;
23304;SDS011;11821;51.456;8.844;2023-05-29T00:58:44;7.57;;;4.18;;
23304;SDS011;11821;51.456;8.844;2023-05-29T01:01:11;6.05;;;3.58;;
23304;SDS011;11821;51.456;8.844;2023-05-29T01:03:38;7.57;;;4.10;;
23304;SDS011;11821;51.456;8.844;2023-05-29T01:06:06;4.80;;;3.88;;
23304;SDS011;11821;51.456;8.844;2023-05-29T01:08:33;6.15;;;4.13;;
23304;SDS011;11821;51.456;8.844;2023-05-29T01:11:02;8.00;;;4.70;;
23304;SDS011;11821;51.456;8.844;2023-05-29T01:13:31;4.75;;;3.80;;
23304;SDS011;11821;51.456;8.844;2023-05-29T01:16:08;9.75;;;4.07;;
23304;SDS011;11821;51.456;8.844;2023-05-29T01:18:44;7.85;;;4.10;;
23304;SDS011;11821;51.456;8.844;2023-05-29T01:21:14;5.57;;;4.22;;
23304;SDS011;11821;51.456;8.844;2023-05-29T01:26:15;7.30;;;4.38;;
23304;SDS011;11821;51.456;8.844;2023-05-29T01:28:52;5.30;;;3.90;;
23304;SDS011;11821;51.456;8.844;2023-05-29T01:31:24;10.70;;;4.65;;
23304;SDS011;11821;51.456;8.844;2023-05-29T01:33:53;7.85;;;4.07;;
23304;SDS011;11821;51.456;8.844;2023-05-29T01:36:20;7.20;;;4.63;;
23304;SDS011;11821;51.456;8.844;2023-05-29T01:38:51;4.63;;;3.90;;
23304;SDS011;11821;51.456;8.844;2023-05-29T01:41:19;5.72;;;4.38;;
23304;SDS011;11821;51.456;8.844;2023-05-29T01:43:47;6.35;;;3.78;;
23304;SDS011;11821;51.456;8.844;2023-05-29T01:46:14;4.68;;;4.20;;
23304;SDS011;11821;51.456;8.844;2023-05-29T01:48:42;4.75;;;4.15;;
23304;SDS011;11821;51.456;8.844;2023-05-29T01:51:09;5.47;;;4.20;;
23304;SDS011;11821;51.456;8.844;2023-05-29T01:53:37;5.80;;;4.07;;
23304;SDS011;11821;51.456;8.844;2023-05-29T01:56:05;5.47;;;3.97;;
23304;SDS011;11821;51.456;8.844;2023-05-29T01:58:32;7.15;;;4.47;;
23304;SDS011;11821;51.456;8.844;2023-05-29T02:00:59;5.53;;;4.30;;
23304;SDS011;11821;51.456;8.844;2023-05-29T02:03:26;4.60;;;3.92;;
23304;SDS011;11821;51.456;8.844;2023-05-29T02:05:56;4.32;;;3.78;;
23304;SDS011;11821;51.456;8.844;2023-05-29T02:08:23;6.93;;;4.22;;
23304;SDS011;11821;51.456;8.844;2023-05-29T02:10:50;4.97;;;4.22;;
23304;SDS011;11821;51.456;8.844;2023-05-29T02:13:18;8.18;;;4.55;;
23304;SDS011;11821;51.456;8.844;2023-05-29T02:15:45;6.90;;;4.20;;
23304;SDS011;11821;51.456;8.844;2023-05-29T02:18:13;6.40;;;3.92;;
23304;SDS011;11821;51.456;8.844;2023-05-29T02:20:40;5.22;;;4.18;;
23304;SDS011;11821;51.456;8.844;2023-05-29T02:23:08;6.43;;;4.40;;
23304;SDS011;11821;51.456;8.844;2023-05-29T02:25:35;5.43;;;3.88;;
23304;SDS011;11821;51.456;8.844;2023-05-29T02:28:02;5.85;;;3.88;;
23304;SDS011;11821;51.456;8.844;2023-05-29T02:30:29;4.60;;;3.80;;
23304;SDS011;11821;51.456;8.844;2023-05-29T02:32:56;5.50;;;4.25;;
23304;SDS011;11821;51.456;8.844;2023-05-29T02:35:23;5.22;;;3.90;;
23304;SDS011;11821;51.456;8.844;2023-05-29T02:37:50;5.40;;;3.75;;
23304;SDS011;11821;51.456;8.844;2023-05-29T02:40:17;5.68;;;4.07;;
23304;SDS011;11821;51.456;8.844;2023-05-29T02:42:44;4.78;;;3.97;;
23304;SDS011;11821;51.456;8.844;2023-05-29T02:45:11;7.72;;;4.22;;
23304;SDS011;11821;51.456;8.844;2023-05-29T02:47:38;5.20;;;4.18;;
23304;SDS011;11821;51.456;8.844;2023-05-29T02:50:05;5.00;;;3.80;;
23304;SDS011;11821;51.456;8.844;2023-05-29T02:52:32;8.57;;;4.30;;
23304;SDS011;11821;51.456;8.844;2023-05-29T02:54:59;11.85;;;4.75;;
23304;SDS011;11821;51.456;8.844;2023-05-29T02:57:25;4.80;;;4.30;;
23304;SDS011;11821;51.456;8.844;2023-05-29T02:59:52;6.10;;;3.85;;
23304;SDS011;11821;51.456;8.844;2023-05-29T03:02:20;4.10;;;3.70;;
23304;SDS011;11821;51.456;8.844;2023-05-29T03:04:47;4.75;;;3.50;;
23304;SDS011;11821;51.456;8.844;2023-05-29T03:07:18;5.45;;;4.32;;
23304;SDS011;11821;51.456;8.844;2023-05-29T03:09:45;4.53;;;3.50;;
23304;SDS011;11821;51.456;8.844;2023-05-29T03:12:12;4.82;;;3.97;;
23304;SDS011;11821;51.456;8.844;2023-05-29T03:14:39;4.38;;;3.95;;
23304;SDS011;11821;51.456;8.844;2023-05-29T03:17:10;4.70;;;3.88;;
23304;SDS011;11821;51.456;8.844;2023-05-29T03:19:37;4.93;;;3.80;;
23304;SDS011;11821;51.456;8.844;2023-05-29T03:22:04;4.78;;;3.45;;
23304;SDS011;11821;51.456;8.844;2023-05-29T03:24:33;6.53;;;4.00;;
23304;SDS011;11821;51.456;8.844;2023-05-29T03:27:01;6.40;;;4.15;;
23304;SDS011;11821;51.456;8.844;2023-05-29T03:29:33;6.72;;;4.43;;
23304;SDS011;11821;51.456;8.844;2023-05-29T03:32:02;6.55;;;4.65;;
23304;SDS011;11821;51.456;8.844;2023-05-29T03:34:33;6.63;;;3.97;;
23304;SDS011;11821;51.456;8.844;2023-05-29T03:37:02;6.72;;;4.63;;
23304;SDS011;11821;51.456;8.844;2023-05-29T03:39:30;5.80;;;4.25;;
23304;SDS011;11821;51.456;8.844;2023-05-29T03:41:58;8.50;;;4.13;;
23304;SDS011;11821;51.456;8.844;2023-05-29T03:44:24;8.45;;;4.05;;
23304;SDS011;11821;51.456;8.844;2023-05-29T03:46:51;6.80;;;4.22;;
23304;SDS011;11821;51.456;8.844;2023-05-29T03:49:18;5.68;;;4.38;;
23304;SDS011;11821;51.456;8.844;2023-05-29T03:51:46;10.10;;;5.03;;
23304;SDS011;11821;51.456;8.844;2023-05-29T03:54:13;5.32;;;4.28;;
23304;SDS011;11821;51.456;8.844;2023-05-29T03:56:41;5.78;;;4.18;;
23304;SDS011;11821;51.456;8.844;2023-05-29T03:59:09;4.82;;;3.80;;
23304;SDS011;11821;51.456;8.844;2023-05-29T04:01:36;4.60;;;4.13;;
23304;SDS011;11821;51.456;8.844;2023-05-29T04:04:03;6.15;;;4.28;;
23304;SDS011;11821;51.456;8.844;2023-05-29T04:06:30;6.25;;;3.75;;
23304;SDS011;11821;51.456;8.844;2023-05-29T04:09:04;6.75;;;3.65;;
23304;SDS011;11821;51.456;8.844;2023-05-29T04:11:33;6.20;;;4.20;;
23304;SDS011;11821;51.456;8.844;2023-05-29T04:14:00;6.55;;;4.55;;
23304;SDS011;11821;51.456;8.844;2023-05-29T04:16:27;4.45;;;3.78;;
23304;SDS011;11821;51.456;8.844;2023-05-29T04:18:55;3.83;;;3.40;;
23304;SDS011;11821;51.456;8.844;2023-05-29T04:21:25;6.10;;;4.03;;
23304;SDS011;11821;51.456;8.844;2023-05-29T04:23:54;5.95;;;3.80;;
23304;SDS011;11821;51.456;8.844;2023-05-29T04:26:22;5.47;;;4.32;;
23304;SDS011;11821;51.456;8.844;2023-05-29T04:28:54;4.60;;;4.00;;
23304;SDS011;11821;51.456;8.844;2023-05-29T04:31:25;6.03;;;4.43;;
23304;SDS011;11821;51.456;8.844;2023-05-29T04:33:53;5.28;;;3.88;;
23304;SDS011;11821;51.456;8.844;2023-05-29T04:36:22;5.35;;;4.00;;
23304;SDS011;11821;51.456;8.844;2023-05-29T04:38:53;6.88;;;4.95;;
23304;SDS011;11821;51.456;8.844;2023-05-29T04:41:21;5.15;;;3.90;;
23304;SDS011;11821;51.456;8.844;2023-05-29T04:43:50;9.00;;;4.25;;
23304;SDS011;11821;51.456;8.844;2023-05-29T04:46:18;6.30;;;4.22;;
23304;SDS011;11821;51.456;8.844;2023-05-29T04:48:45;10.50;;;4.10;;
23304;SDS011;11821;51.456;8.844;2023-05-29T04:51:12;6.38;;;4.15;;
23304;SDS011;11821;51.456;8.844;2023-05-29T04:53:41;5.30;;;4.35;;
23304;SDS011;11821;51.456;8.844;2023-05-29T04:56:10;7.80;;;4.78;;
23304;SDS011;11821;51.456;8.844;2023-05-29T04:58:37;6.70;;;4.40;;
23304;SDS011;11821;51.456;8.844;2023-05-29T05:01:04;7.70;;;4.80;;
23304;SDS011;11821;51.456;8.844;2023-05-29T05:03:33;7.50;;;4.55;;
23304;SDS011;11821;51.456;8.844;2023-05-29T05:06:00;8.43;;;4.90;;
23304;SDS011;11821;51.456;8.844;2023-05-29T05:08:32;8.05;;;5.35;;
23304;SDS011;11821;51.456;8.844;2023-05-29T05:11:01;10.15;;;5.15;;
23304;SDS011;11821;51.456;8.844;2023-05-29T05:13:28;7.15;;;5.10;;
23304;SDS011;11821;51.456;8.844;2023-05-29T05:15:55;7.95;;;5.13;;
23304;SDS011;11821;51.456;8.844;2023-05-29T05:18:25;10.15;;;5.70;;
23304;SDS011;11821;51.456;8.844;2023-05-29T05:21:02;12.63;;;5.35;;
23304;SDS011;11821;51.456;8.844;2023-05-29T05:23:31;9.75;;;5.68;;
23304;SDS011;11821;51.456;8.844;2023-05-29T05:25:58;9.23;;;5.22;;
23304;SDS011;11821;51.456;8.844;2023-05-29T05:28:26;8.00;;;5.68;;
23304;SDS011;11821;51.456;8.844;2023-05-29T05:30:52;9.80;;;5.30;;
23304;SDS011;11821;51.456;8.844;2023-05-29T05:33:19;6.68;;;4.60;;
23304;SDS011;11821;51.456;8.844;2023-05-29T05:35:47;8.23;;;5.20;;
23304;SDS011;11821;51.456;8.844;2023-05-29T05:38:14;8.60;;;5.03;;
23304;SDS011;11821;51.456;8.844;2023-05-29T05:40:42;5.35;;;3.85;;
23304;SDS011;11821;51.456;8.844;2023-05-29T05:43:16;10.88;;;4.88;;
23304;SDS011;11821;51.456;8.844;2023-05-29T05:48:36;9.82;;;4.35;;
23304;SDS011;11821;51.456;8.844;2023-05-29T05:51:03;12.10;;;4.25;;
23304;SDS011;11821;51.456;8.844;2023-05-29T05:53:31;5.40;;;3.20;;
23304;SDS011;11821;51.456;8.844;2023-05-29T05:55:58;6.38;;;3.00;;
23304;SDS011;11821;51.456;8.844;2023-05-29T05:58:25;9.43;;;4.25;;
23304;SDS011;11821;51.456;8.844;2023-05-29T06:00:52;9.20;;;3.88;;
23304;SDS011;11821;51.456;8.844;2023-05-29T06:03:19;6.35;;;2.70;;
23304;SDS011;11821;51.456;8.844;2023-05-29T06:05:57;7.13;;;3.30;;
23304;SDS011;11821;51.456;8.844;2023-05-29T06:08:24;11.75;;;3.85;;
23304;SDS011;11821;51.456;8.844;2023-05-29T06:10:52;5.18;;;3.13;;
23304;SDS011;11821;51.456;8.844;2023-05-29T06:13:19;5.13;;;2.80;;
23304;SDS011;11821;51.456;8.844;2023-05-29T06:15:54;11.10;;;3.83;;
23304;SDS011;11821;51.456;8.844;2023-05-29T06:18:21;7.90;;;3.50;;
23304;SDS011;11821;51.456;8.844;2023-05-29T06:20:48;7.00;;;3.15;;
23304;SDS011;11821;51.456;8.844;2023-05-29T06:23:16;6.88;;;3.00;;
23304;SDS011;11821;51.456;8.844;2023-05-29T06:25:43;5.90;;;3.17;;
23304;SDS011;11821;51.456;8.844;2023-05-29T06:28:10;7.68;;;3.92;;
23304;SDS011;11821;51.456;8.844;2023-05-29T06:30:38;11.02;;;3.80;;
23304;SDS011;11821;51.456;8.844;2023-05-29T06:35:58;6.10;;;3.20;;
23304;SDS011;11821;51.456;8.844;2023-05-29T06:38:25;7.35;;;3.10;;
23304;SDS011;11821;51.456;8.844;2023-05-29T06:40:52;5.15;;;2.88;;
23304;SDS011;11821;51.456;8.844;2023-05-29T06:43:18;7.65;;;2.80;;
23304;SDS011;11821;51.456;8.844;2023-05-29T06:45:47;5.97;;;3.15;;
23304;SDS011;11821;51.456;8.844;2023-05-29T06:48:13;9.85;;;4.05;;
23304;SDS011;11821;51.456;8.844;2023-05-29T06:50:42;4.50;;;2.75;;
23304;SDS011;11821;51.456;8.844;2023-05-29T06:53:28;6.68;;;3.30;;
23304;SDS011;11821;51.456;8.844;2023-05-29T06:55:56;7.63;;;3.78;;
23304;SDS011;11821;51.456;8.844;2023-05-29T06:58:23;5.50;;;3.35;;
23304;SDS011;11821;51.456;8.844;2023-05-29T07:00:50;5.97;;;3.17;;
23304;SDS011;11821;51.456;8.844;2023-05-29T07:03:30;7.00;;;3.45;;
23304;SDS011;11821;51.456;8.844;2023-05-29T07:05:57;4.78;;;2.45;;
23304;SDS011;11821;51.456;8.844;2023-05-29T07:08:24;5.47;;;2.80;;
23304;SDS011;11821;51.456;8.844;2023-05-29T07:10:52;4.22;;;2.50;;
23304;SDS011;11821;51.456;8.844;2023-05-29T07:13:20;5.10;;;3.20;;
23304;SDS011;11821;51.456;8.844;2023-05-29T07:15:50;6.43;;;3.38;;
23304;SDS011;11821;51.456;8.844;2023-05-29T07:18:21;7.38;;;3.75;;
23304;SDS011;11821;51.456;8.844;2023-05-29T07:20:48;6.00;;;2.80;;
23304;SDS011;11821;51.456;8.844;2023-05-29T07:23:18;6.25;;;2.72;;
23304;SDS011;11821;51.456;8.844;2023-05-29T07:25:44;6.50;;;3.25;;
23304;SDS011;11821;51.456;8.844;2023-05-29T07:28:11;6.10;;;3.15;;
23304;SDS011;11821;51.456;8.844;2023-05-29T07:30:38;6.82;;;3.10;;
23304;SDS011;11821;51.456;8.844;2023-05-29T07:33:05;6.70;;;3.03;;
23304;SDS011;11821;51.456;8.844;2023-05-29T07:35:32;10.02;;;3.33;;
23304;SDS011;11821;51.456;8.844;2023-05-29T07:38:00;9.10;;;3.35;;
23304;SDS011;11821;51.456;8.844;2023-05-29T07:40:28;8.73;;;3.13;;
23304;SDS011;11821;51.456;8.844;2023-05-29T07:43:12;9.50;;;3.80;;
23304;SDS011;11821;51.456;8.844;2023-05-29T07:45:49;4.93;;;3.13;;
23304;SDS011;11821;51.456;8.844;2023-05-29T07:48:16;7.22;;;2.95;;
23304;SDS011;11821;51.456;8.844;2023-05-29T07:50:43;7.05;;;3.20;;
23304;SDS011;11821;51.456;8.844;2023-05-29T07:53:10;7.38;;;3.70;;
23304;SDS011;11821;51.456;8.844;2023-05-29T07:55:38;8.27;;;3.45;;
23304;SDS011;11821;51.456;8.844;2023-05-29T07:58:05;5.72;;;3.17;;
23304;SDS011;11821;51.456;8.844;2023-05-29T08:00:33;6.25;;;2.83;;
23304;SDS011;11821;51.456;8.844;2023-05-29T08:03:02;6.70;;;3.15;;
23304;SDS011;11821;51.456;8.844;2023-05-29T08:05:48;7.57;;;3.58;;
23304;SDS011;11821;51.456;8.844;2023-05-29T08:08:17;9.73;;;3.65;;
23304;SDS011;11821;51.456;8.844;2023-05-29T08:10:43;9.02;;;3.30;;
23304;SDS011;11821;51.456;8.844;2023-05-29T08:13:10;6.40;;;3.47;;
23304;SDS011;11821;51.456;8.844;2023-05-29T08:15:39;7.32;;;3.08;;
23304;SDS011;11821;51.456;8.844;2023-05-29T08:18:06;5.40;;;2.88;;
23304;SDS011;11821;51.456;8.844;2023-05-29T08:20:33;8.50;;;3.70;;
23304;SDS011;11821;51.456;8.844;2023-05-29T08:23:00;7.32;;;2.97;;
23304;SDS011;11821;51.456;8.844;2023-05-29T08:25:27;6.10;;;3.15;;
23304;SDS011;11821;51.456;8.844;2023-05-29T08:27:54;8.43;;;3.00;;
23304;SDS011;11821;51.456;8.844;2023-05-29T08:30:21;6.32;;;3.03;;
23304;SDS011;11821;51.456;8.844;2023-05-29T08:32:48;5.10;;;2.67;;
23304;SDS011;11821;51.456;8.844;2023-05-29T08:35:16;6.68;;;3.70;;
23304;SDS011;11821;51.456;8.844;2023-05-29T08:37:43;5.43;;;3.10;;
23304;SDS011;11821;51.456;8.844;2023-05-29T08:40:12;6.38;;;2.97;;
23304;SDS011;11821;51.456;8.844;2023-05-29T08:42:47;5.32;;;2.97;;
23304;SDS011;11821;51.456;8.844;2023-05-29T08:45:25;8.10;;;3.22;;
23304;SDS011;11821;51.456;8.844;2023-05-29T08:47:52;4.80;;;2.67;;
23304;SDS011;11821;51.456;8.844;2023-05-29T08:50:22;8.10;;;3.33;;
23304;SDS011;11821;51.456;8.844;2023-05-29T08:52:49;19.73;;;3.75;;
23304;SDS011;11821;51.456;8.844;2023-05-29T08:55:17;7.60;;;2.90;;
23304;SDS011;11821;51.456;8.844;2023-05-29T08:57:44;5.38;;;2.97;;
23304;SDS011;11821;51.456;8.844;2023-05-29T09:00:13;8.50;;;2.70;;
23304;SDS011;11821;51.456;8.844;2023-05-29T09:02:44;7.15;;;3.05;;
23304;SDS011;11821;51.456;8.844;2023-05-29T09:05:11;6.40;;;3.13;;
23304;SDS011;11821;51.456;8.844;2023-05-29T09:07:39;6.82;;;3.25;;
23304;SDS011;11821;51.456;8.844;2023-05-29T09:10:09;7.80;;;3.10;;
23304;SDS011;11821;51.456;8.844;2023-05-29T09:12:36;6.72;;;3.03;;
23304;SDS011;11821;51.456;8.844;2023-05-29T09:15:03;6.00;;;2.67;;
23304;SDS011;11821;51.456;8.844;2023-05-29T09:17:53;7.93;;;3.17;;
23304;SDS011;11821;51.456;8.844;2023-05-29T09:20:21;5.28;;;2.63;;
23304;SDS011;11821;51.456;8.844;2023-05-29T09:25:25;9.32;;;2.75;;
23304;SDS011;11821;51.456;8.844;2023-05-29T09:28:04;6.20;;;2.95;;
23304;SDS011;11821;51.456;8.844;2023-05-29T09:30:37;5.40;;;3.00;;
23304;SDS011;11821;51.456;8.844;2023-05-29T09:33:09;5.63;;;2.90;;
23304;SDS011;11821;51.456;8.844;2023-05-29T09:38:06;6.93;;;3.70;;
23304;SDS011;11821;51.456;8.844;2023-05-29T09:40:38;5.75;;;3.38;;
23304;SDS011;11821;51.456;8.844;2023-05-29T09:43:15;6.68;;;3.78;;
23304;SDS011;11821;51.456;8.844;2023-05-29T09:45:44;10.07;;;3.60;;
23304;SDS011;11821;51.456;8.844;2023-05-29T09:48:22;7.97;;;3.08;;
23304;SDS011;11821;51.456;8.844;2023-05-29T09:50:50;6.05;;;3.47;;
23304;SDS011;11821;51.456;8.844;2023-05-29T09:53:18;9.75;;;3.10;;
23304;SDS011;11821;51.456;8.844;2023-05-29T09:55:46;7.85;;;3.67;;
23304;SDS011;11821;51.456;8.844;2023-05-29T09:58:20;5.65;;;3.08;;
23304;SDS011;11821;51.456;8.844;2023-05-29T10:00:54;4.45;;;2.70;;
23304;SDS011;11821;51.456;8.844;2023-05-29T10:03:29;6.90;;;3.38;;
23304;SDS011;11821;51.456;8.844;2023-05-29T10:06:00;9.43;;;3.40;;
23304;SDS011;11821;51.456;8.844;2023-05-29T10:08:33;5.57;;;2.92;;
23304;SDS011;11821;51.456;8.844;2023-05-29T10:11:06;5.72;;;3.03;;
23304;SDS011;11821;51.456;8.844;2023-05-29T10:13:42;7.80;;;3.63;;
23304;SDS011;11821;51.456;8.844;2023-05-29T10:16:14;6.50;;;3.17;;
23304;SDS011;11821;51.456;8.844;2023-05-29T10:18:42;7.35;;;3.60;;
23304;SDS011;11821;51.456;8.844;2023-05-29T10:21:31;5.90;;;3.60;;
23304;SDS011;11821;51.456;8.844;2023-05-29T10:24:02;5.85;;;2.78;;
23304;SDS011;11821;51.456;8.844;2023-05-29T10:26:37;7.18;;;3.50;;
23304;SDS011;11821;51.456;8.844;2023-05-29T10:29:16;6.07;;;3.25;;
23304;SDS011;11821;51.456;8.844;2023-05-29T10:34:30;7.70;;;2.95;;
23304;SDS011;11821;51.456;8.844;2023-05-29T10:37:33;6.15;;;2.92;;
23304;SDS011;11821;51.456;8.844;2023-05-29T10:40:22;8.30;;;3.58;;
23304;SDS011;11821;51.456;8.844;2023-05-29T10:42:53;9.35;;;3.40;;
23304;SDS011;11821;51.456;8.844;2023-05-29T10:50:38;9.60;;;3.75;;
23304;SDS011;11821;51.456;8.844;2023-05-29T10:53:08;8.23;;;3.38;;
23304;SDS011;11821;51.456;8.844;2023-05-29T10:55:39;6.90;;;3.38;;
23304;SDS011;11821;51.456;8.844;2023-05-29T10:58:14;9.77;;;3.78;;
23304;SDS011;11821;51.456;8.844;2023-05-29T11:00:54;7.50;;;3.53;;
23304;SDS011;11821;51.456;8.844;2023-05-29T11:03:26;8.50;;;3.40;;
23304;SDS011;11821;51.456;8.844;2023-05-29T11:08:29;7.03;;;3.15;;
23304;SDS011;11821;51.456;8.844;2023-05-29T11:14:04;7.33;;;2.63;;
23304;SDS011;11821;51.456;8.844;2023-05-29T11:18:59;8.32;;;3.00;;
23304;SDS011;11821;51.456;8.844;2023-05-29T11:24:26;7.20;;;3.55;;
23304;SDS011;11821;51.456;8.844;2023-05-29T11:26:56;8.57;;;3.22;;
23304;SDS011;11821;51.456;8.844;2023-05-29T11:29:31;9.45;;;3.03;;
23304;SDS011;11821;51.456;8.844;2023-05-29T11:32:01;6.40;;;3.45;;
23304;SDS011;11821;51.456;8.844;2023-05-29T11:34:33;11.98;;;2.88;;
23304;SDS011;11821;51.456;8.844;2023-05-29T11:37:07;7.00;;;3.30;;
23304;SDS011;11821;51.456;8.844;2023-05-29T11:39:38;8.38;;;3.50;;
23304;SDS011;11821;51.456;8.844;2023-05-29T11:42:10;8.55;;;3.55;;
23304;SDS011;11821;51.456;8.844;2023-05-29T11:44:38;6.88;;;3.17;;
23304;SDS011;11821;51.456;8.844;2023-05-29T11:47:10;11.43;;;3.90;;
23304;SDS011;11821;51.456;8.844;2023-05-29T11:49:44;8.07;;;3.47;;
23304;SDS011;11821;51.456;8.844;2023-05-29T11:52:12;8.82;;;3.15;;
23304;SDS011;11821;51.456;8.844;2023-05-29T11:57:23;6.00;;;2.92;;
23304;SDS011;11821;51.456;8.844;2023-05-29T11:59:55;7.43;;;3.28;;
23304;SDS011;11821;51.456;8.844;2023-05-29T12:02:24;6.70;;;2.88;;
23304;SDS011;11821;51.456;8.844;2023-05-29T12:05:00;8.57;;;3.33;;
23304;SDS011;11821;51.456;8.844;2023-05-29T12:07:33;10.30;;;3.53;;
23304;SDS011;11821;51.456;8.844;2023-05-29T12:10:11;5.43;;;3.00;;
23304;SDS011;11821;51.456;8.844;2023-05-29T12:12:47;5.45;;;3.15;;
23304;SDS011;11821;51.456;8.844;2023-05-29T12:15:22;7.90;;;2.78;;
23304;SDS011;11821;51.456;8.844;2023-05-29T12:17:52;10.63;;;3.72;;
23304;SDS011;11821;51.456;8.844;2023-05-29T12:20:24;7.13;;;3.40;;
23304;SDS011;11821;51.456;8.844;2023-05-29T12:23:00;6.78;;;2.78;;
23304;SDS011;11821;51.456;8.844;2023-05-29T12:25:28;7.63;;;3.42;;
23304;SDS011;11821;51.456;8.844;2023-05-29T12:27:58;6.70;;;3.00;;
23304;SDS011;11821;51.456;8.844;2023-05-29T12:30:26;6.65;;;3.08;;
23304;SDS011;11821;51.456;8.844;2023-05-29T12:32:56;6.47;;;2.78;;
23304;SDS011;11821;51.456;8.844;2023-05-29T12:38:04;5.57;;;3.05;;
23304;SDS011;11821;51.456;8.844;2023-05-29T12:40:41;7.60;;;2.80;;
23304;SDS011;11821;51.456;8.844;2023-05-29T12:43:15;7.90;;;3.17;;
23304;SDS011;11821;51.456;8.844;2023-05-29T12:45:43;6.72;;;2.88;;
23304;SDS011;11821;51.456;8.844;2023-05-29T12:48:11;8.80;;;3.22;;
23304;SDS011;11821;51.456;8.844;2023-05-29T12:50:41;7.80;;;3.30;;
23304;SDS011;11821;51.456;8.844;2023-05-29T12:53:09;6.07;;;2.78;;
23304;SDS011;11821;51.456;8.844;2023-05-29T12:55:40;7.68;;;3.47;;
23304;SDS011;11821;51.456;8.844;2023-05-29T12:58:09;5.07;;;2.83;;
23304;SDS011;11821;51.456;8.844;2023-05-29T13:00:37;6.20;;;2.90;;
23304;SDS011;11821;51.456;8.844;2023-05-29T13:03:04;6.65;;;3.10;;
23304;SDS011;11821;51.456;8.844;2023-05-29T13:05:33;7.60;;;3.38;;
23304;SDS011;11821;51.456;8.844;2023-05-29T13:08:00;4.30;;;2.50;;
23304;SDS011;11821;51.456;8.844;2023-05-29T13:10:28;4.55;;;2.92;;
23304;SDS011;11821;51.456;8.844;2023-05-29T13:12:58;6.53;;;2.75;;
23304;SDS011;11821;51.456;8.844;2023-05-29T13:15:25;5.68;;;3.33;;
23304;SDS011;11821;51.456;8.844;2023-05-29T13:17:56;7.10;;;3.08;;
23304;SDS011;11821;51.456;8.844;2023-05-29T13:20:27;6.68;;;3.00;;
23304;SDS011;11821;51.456;8.844;2023-05-29T13:22:57;6.95;;;3.22;;
23304;SDS011;11821;51.456;8.844;2023-05-29T13:25:28;6.70;;;2.70;;
23304;SDS011;11821;51.456;8.844;2023-05-29T13:27:58;5.70;;;3.08;;
23304;SDS011;11821;51.456;8.844;2023-05-29T13:30:29;8.02;;;3.17;;
23304;SDS011;11821;51.456;8.844;2023-05-29T13:33:17;6.53;;;2.72;;
23304;SDS011;11821;51.456;8.844;2023-05-29T13:35:47;5.05;;;2.70;;
23304;SDS011;11821;51.456;8.844;2023-05-29T13:38:20;3.92;;;2.70;;
23304;SDS011;11821;51.456;8.844;2023-05-29T13:40:47;5.15;;;2.58;;
23304;SDS011;11821;51.456;8.844;2023-05-29T13:43:20;7.13;;;2.90;;
23304;SDS011;11821;51.456;8.844;2023-05-29T13:45:50;9.95;;;3.20;;
23304;SDS011;11821;51.456;8.844;2023-05-29T13:48:17;7.53;;;3.22;;
23304;SDS011;11821;51.456;8.844;2023-05-29T13:50:45;6.18;;;2.88;;
23304;SDS011;11821;51.456;8.844;2023-05-29T13:53:12;6.32;;;3.40;;
23304;SDS011;11821;51.456;8.844;2023-05-29T13:55:43;5.53;;;3.20;;
23304;SDS011;11821;51.456;8.844;2023-05-29T13:58:11;8.13;;;3.42;;
23304;SDS011;11821;51.456;8.844;2023-05-29T14:00:39;5.15;;;2.80;;
23304;SDS011;11821;51.456;8.844;2023-05-29T14:03:06;7.90;;;3.08;;
23304;SDS011;11821;51.456;8.844;2023-05-29T14:05:37;4.28;;;2.67;;
23304;SDS011;11821;51.456;8.844;2023-05-29T14:08:04;3.50;;;2.08;;
23304;SDS011;11821;51.456;8.844;2023-05-29T14:10:34;5.55;;;2.55;;
23304;SDS011;11821;51.456;8.844;2023-05-29T14:13:04;5.50;;;3.00;;
23304;SDS011;11821;51.456;8.844;2023-05-29T14:15:34;5.22;;;2.80;;
23304;SDS011;11821;51.456;8.844;2023-05-29T14:18:05;4.72;;;2.47;;
23304;SDS011;11821;51.456;8.844;2023-05-29T14:20:39;8.90;;;3.42;;
23304;SDS011;11821;51.456;8.844;2023-05-29T14:23:16;7.72;;;2.47;;
23304;SDS011;11821;51.456;8.844;2023-05-29T14:25:50;5.20;;;2.90;;
23304;SDS011;11821;51.456;8.844;2023-05-29T14:28:33;7.95;;;2.85;;
23304;SDS011;11821;51.456;8.844;2023-05-29T14:31:06;4.18;;;2.75;;
23304;SDS011;11821;51.456;8.844;2023-05-29T14:33:34;6.60;;;2.92;;
23304;SDS011;11821;51.456;8.844;2023-05-29T14:36:08;4.25;;;2.20;;
23304;SDS011;11821;51.456;8.844;2023-05-29T14:38:36;5.45;;;2.70;;
23304;SDS011;11821;51.456;8.844;2023-05-29T14:41:06;4.93;;;2.60;;
23304;SDS011;11821;51.456;8.844;2023-05-29T14:43:33;4.63;;;3.25;;
23304;SDS011;11821;51.456;8.844;2023-05-29T14:46:04;5.13;;;2.63;;
23304;SDS011;11821;51.456;8.844;2023-05-29T14:48:33;5.63;;;2.95;;
23304;SDS011;11821;51.456;8.844;2023-05-29T14:51:00;4.57;;;2.60;;
23304;SDS011;11821;51.456;8.844;2023-05-29T14:53:31;6.68;;;3.10;;
23304;SDS011;11821;51.456;8.844;2023-05-29T14:56:01;6.53;;;3.03;;
23304;SDS011;11821;51.456;8.844;2023-05-29T14:58:28;6.60;;;3.00;;
23304;SDS011;11821;51.456;8.844;2023-05-29T15:00:56;5.25;;;3.03;;
23304;SDS011;11821;51.456;8.844;2023-05-29T15:03:24;7.13;;;3.15;;
23304;SDS011;11821;51.456;8.844;2023-05-29T15:05:55;5.15;;;2.83;;
23304;SDS011;11821;51.456;8.844;2023-05-29T15:08:23;7.47;;;3.00;;
23304;SDS011;11821;51.456;8.844;2023-05-29T15:10:51;5.82;;;2.45;;
23304;SDS011;11821;51.456;8.844;2023-05-29T15:13:18;3.92;;;2.30;;
23304;SDS011;11821;51.456;8.844;2023-05-29T15:15:45;6.78;;;2.90;;
23304;SDS011;11821;51.456;8.844;2023-05-29T15:18:12;3.95;;;2.70;;
23304;SDS011;11821;51.456;8.844;2023-05-29T15:20:40;4.18;;;2.53;;
23304;SDS011;11821;51.456;8.844;2023-05-29T15:23:14;4.47;;;2.60;;
23304;SDS011;11821;51.456;8.844;2023-05-29T15:25:49;4.20;;;2.47;;
23304;SDS011;11821;51.456;8.844;2023-05-29T15:28:22;3.75;;;2.53;;
23304;SDS011;11821;51.456;8.844;2023-05-29T15:30:50;5.20;;;2.50;;
23304;SDS011;11821;51.456;8.844;2023-05-29T15:33:20;6.47;;;2.75;;
23304;SDS011;11821;51.456;8.844;2023-05-29T15:35:47;4.28;;;3.03;;
23304;SDS011;11821;51.456;8.844;2023-05-29T15:38:15;4.10;;;2.45;;
23304;SDS011;11821;51.456;8.844;2023-05-29T15:40:43;6.25;;;2.60;;